createdAt,value
2022-10-01T00:02:07.769Z,9.18
2022-10-01T00:04:37.542Z,9.22
2022-10-01T00:07:12.233Z,9.27
2022-10-01T00:09:39.761Z,9.30
2022-10-01T00:12:07.935Z,9.32
2022-10-01T00:14:39.305Z,9.31
2022-10-01T00:17:07.007Z,9.28
2022-10-01T00:19:34.568Z,9.26
2022-10-01T00:22:02.453Z,9.28
2022-10-01T00:24:30.107Z,9.30
2022-10-01T00:26:57.776Z,9.32
2022-10-01T00:29:25.321Z,9.35
2022-10-01T00:31:53.018Z,9.37
2022-10-01T00:34:20.701Z,9.37
2022-10-01T00:36:49.292Z,9.38
2022-10-01T00:39:16.846Z,9.37
2022-10-01T00:41:44.371Z,9.37
2022-10-01T00:44:27.818Z,9.38
2022-10-01T00:47:21.762Z,9.41
2022-10-01T00:49:54.594Z,9.43
2022-10-01T00:52:30.991Z,9.44
2022-10-01T00:55:16.340Z,9.45
2022-10-01T00:57:45.853Z,9.44
2022-10-01T01:00:14.785Z,9.40
2022-10-01T01:02:42.965Z,9.37
2022-10-01T01:05:13.737Z,9.33
2022-10-01T01:07:52.680Z,9.32
2022-10-01T01:10:52.895Z,9.32
2022-10-01T01:13:42.766Z,9.33
2022-10-01T01:16:34.023Z,9.33
2022-10-01T01:19:37.979Z,9.30
2022-10-01T01:22:10.760Z,9.25
2022-10-01T01:25:07.060Z,9.19
2022-10-01T01:28:01.881Z,9.12
2022-10-01T01:30:32.944Z,9.07
2022-10-01T01:33:22.199Z,9.02
2022-10-01T01:36:04.626Z,8.97
2022-10-01T01:38:40.352Z,8.89
2022-10-01T01:41:10.883Z,8.82
2022-10-01T01:43:44.677Z,8.77
2022-10-01T01:46:17.726Z,8.72
2022-10-01T01:48:49.643Z,8.67
2022-10-01T01:51:26.411Z,8.64
2022-10-01T01:53:54.309Z,8.60
2022-10-01T01:56:21.841Z,8.58
2022-10-01T01:58:50.643Z,8.54
2022-10-01T02:01:42.537Z,8.49
2022-10-01T02:04:31.535Z,8.43
2022-10-01T02:07:36.813Z,8.39
2022-10-01T02:10:04.388Z,8.37
2022-10-01T02:12:44.454Z,8.33
2022-10-01T02:15:18.144Z,8.30
2022-10-01T02:17:50.666Z,8.25
2022-10-01T02:20:31.286Z,8.22
2022-10-01T02:23:15.034Z,8.18
2022-10-01T02:25:49.548Z,8.15
2022-10-01T02:28:22.938Z,8.13
2022-10-01T02:30:54.601Z,8.13
2022-10-01T02:33:29.401Z,8.12
2022-10-01T02:36:00.355Z,8.09
2022-10-01T02:38:28.712Z,8.06
2022-10-01T02:41:05.235Z,8.02
2022-10-01T02:43:42.738Z,8.01
2022-10-01T02:46:21.960Z,8.01
2022-10-01T02:48:52.568Z,8.02
2022-10-01T02:51:52.257Z,8.04
2022-10-01T02:54:31.375Z,8.06
2022-10-01T02:57:15.044Z,8.07
2022-10-01T02:59:42.609Z,8.06
2022-10-01T03:02:10.917Z,8.04
2022-10-01T03:04:38.590Z,8.02
2022-10-01T03:07:06.221Z,8.02
2022-10-01T03:09:36.862Z,8.03
2022-10-01T03:12:06.462Z,8.04
2022-10-01T03:14:34.092Z,8.03
2022-10-01T03:17:01.648Z,8.02
2022-10-01T03:19:29.170Z,8.00
2022-10-01T03:21:56.760Z,7.98
2022-10-01T03:24:24.337Z,7.97
2022-10-01T03:26:51.948Z,7.96
2022-10-01T03:29:19.531Z,7.95
2022-10-01T03:31:47.111Z,7.95
2022-10-01T03:34:14.743Z,7.95
2022-10-01T03:36:42.376Z,7.93
2022-10-01T03:39:10.032Z,7.90
2022-10-01T03:41:37.792Z,7.89
2022-10-01T03:44:05.365Z,7.87
2022-10-01T03:46:33.100Z,7.84
2022-10-01T03:49:00.991Z,7.85
2022-10-01T03:51:29.379Z,7.86
2022-10-01T03:53:58.223Z,7.87
2022-10-01T03:56:25.977Z,7.86
2022-10-01T03:58:53.549Z,7.85
2022-10-01T04:01:22.155Z,7.85
2022-10-01T04:03:50.340Z,7.83
2022-10-01T04:06:18.471Z,7.82
2022-10-01T04:08:46.034Z,7.81
2022-10-01T04:11:14.001Z,7.80
2022-10-01T04:13:41.617Z,7.79
2022-10-01T04:16:09.699Z,7.78
2022-10-01T04:18:37.317Z,7.75
2022-10-01T04:21:05.769Z,7.73
2022-10-01T04:23:33.349Z,7.72
2022-10-01T04:26:02.329Z,7.71
2022-10-01T04:28:31.531Z,7.73
2022-10-01T04:31:14.689Z,7.74
2022-10-01T04:33:42.316Z,7.73
2022-10-01T04:36:09.931Z,7.71
2022-10-01T04:38:38.099Z,7.69
2022-10-01T04:41:05.842Z,7.65
2022-10-01T04:43:33.409Z,7.60
2022-10-01T04:46:00.953Z,7.56
2022-10-01T04:48:28.507Z,7.56
2022-10-01T04:50:56.487Z,7.56
2022-10-01T04:53:24.102Z,7.55
2022-10-01T04:55:51.621Z,7.55
2022-10-01T04:58:19.202Z,7.54
2022-10-01T05:00:49.816Z,7.53
2022-10-01T05:03:18.801Z,7.50
2022-10-01T05:05:46.413Z,7.50
2022-10-01T05:08:14.044Z,7.54
2022-10-01T05:10:42.621Z,7.56
2022-10-01T05:13:11.494Z,7.57
2022-10-01T05:15:39.043Z,7.58
2022-10-01T05:18:08.457Z,7.58
2022-10-01T05:20:37.875Z,7.55
2022-10-01T05:23:05.463Z,7.54
2022-10-01T05:25:33.129Z,7.55
2022-10-01T05:28:05.388Z,7.56
2022-10-01T05:30:33.899Z,7.58
2022-10-01T05:33:03.703Z,7.60
2022-10-01T05:35:31.581Z,7.62
2022-10-01T05:38:03.146Z,7.64
2022-10-01T05:40:31.088Z,7.67
2022-10-01T05:43:00.555Z,7.70
2022-10-01T05:45:31.040Z,7.75
2022-10-01T05:48:04.997Z,7.79
2022-10-01T05:50:37.750Z,7.83
2022-10-01T05:53:06.614Z,7.87
2022-10-01T05:55:34.687Z,7.91
2022-10-01T05:58:10.744Z,7.95
2022-10-01T06:00:40.516Z,8.01
2022-10-01T06:03:12.947Z,8.07
2022-10-01T06:05:44.096Z,8.12
2022-10-01T06:08:12.047Z,8.15
2022-10-01T06:10:39.803Z,8.17
2022-10-01T06:13:07.729Z,8.19
2022-10-01T06:15:39.710Z,8.23
2022-10-01T06:18:09.620Z,8.27
2022-10-01T06:20:38.774Z,8.32
2022-10-01T06:23:12.702Z,8.38
2022-10-01T06:25:42.681Z,8.44
2022-10-01T06:28:15.043Z,8.50
2022-10-01T06:30:43.736Z,8.55
2022-10-01T06:33:14.370Z,8.60
2022-10-01T06:35:45.006Z,8.67
2022-10-01T06:38:13.789Z,8.73
2022-10-01T06:40:42.156Z,8.79
2022-10-01T06:43:10.241Z,8.85
2022-10-01T06:45:43.076Z,8.89
2022-10-01T06:48:14.609Z,8.95
2022-10-01T06:50:47.005Z,9.01
2022-10-01T06:53:17.468Z,9.08
2022-10-01T06:55:45.350Z,9.15
2022-10-01T06:58:16.323Z,9.22
2022-10-01T07:00:44.751Z,9.27
2022-10-01T07:03:15.956Z,9.32
2022-10-01T07:05:44.128Z,9.38
2022-10-01T07:08:13.033Z,9.43
2022-10-01T07:10:41.544Z,9.50
2022-10-01T07:13:11.314Z,9.56
2022-10-01T07:15:39.575Z,9.60
2022-10-01T07:18:11.244Z,9.66
2022-10-01T07:20:40.753Z,9.72
2022-10-01T07:23:12.122Z,9.78
2022-10-01T07:25:41.126Z,9.84
2022-10-01T07:28:17.036Z,9.90
2022-10-01T07:30:47.556Z,9.95
2022-10-01T07:33:18.904Z,9.99
2022-10-01T07:35:48.072Z,10.04
2022-10-01T07:38:15.682Z,10.12
2022-10-01T07:40:43.428Z,10.21
2022-10-01T07:43:14.507Z,10.30
2022-10-01T07:45:42.073Z,10.40
2022-10-01T07:48:09.648Z,10.47
2022-10-01T07:50:37.421Z,10.53
2022-10-01T07:53:04.973Z,10.62
2022-10-01T07:55:32.934Z,10.69
2022-10-01T07:58:03.008Z,10.77
2022-10-01T08:00:33.541Z,10.83
2022-10-01T08:03:02.025Z,10.89
2022-10-01T08:05:33.572Z,10.98
2022-10-01T08:08:04.803Z,11.10
2022-10-01T08:10:36.663Z,11.21
2022-10-01T08:13:15.133Z,11.31
2022-10-01T08:15:53.886Z,11.45
2022-10-01T08:18:23.538Z,11.67
2022-10-01T08:20:51.180Z,11.92
2022-10-01T08:23:19.466Z,12.20
2022-10-01T08:25:48.045Z,12.49
2022-10-01T08:28:16.979Z,12.75
2022-10-01T08:30:44.643Z,12.98
2022-10-01T08:33:14.129Z,13.20
2022-10-01T08:35:43.651Z,13.39
2022-10-01T08:38:15.025Z,13.61
2022-10-01T08:40:51.447Z,13.85
2022-10-01T08:43:26.549Z,14.09
2022-10-01T08:45:58.202Z,14.31
2022-10-01T08:48:56.683Z,14.53
2022-10-01T08:51:44.542Z,14.79
2022-10-01T08:54:29.413Z,15.00
2022-10-01T08:57:01.692Z,15.14
2022-10-01T08:59:51.042Z,15.28
2022-10-01T09:02:20.875Z,15.45
2022-10-01T09:04:58.872Z,15.53
2022-10-01T09:07:48.163Z,15.61
2022-10-01T09:10:27.377Z,15.77
2022-10-01T09:13:26.959Z,15.92
2022-10-01T09:16:08.756Z,16.11
2022-10-01T09:19:08.187Z,16.29
2022-10-01T09:21:57.741Z,16.49
2022-10-01T09:25:04.506Z,16.80
2022-10-01T09:27:32.054Z,17.09
2022-10-01T09:30:12.395Z,17.22
2022-10-01T09:32:53.905Z,17.34
2022-10-01T09:35:40.377Z,17.47
2022-10-01T09:38:17.890Z,17.64
2022-10-01T09:40:51.094Z,17.81
2022-10-01T09:43:23.132Z,18.02
2022-10-01T09:45:53.132Z,18.24
2022-10-01T09:48:27.173Z,18.36
2022-10-01T09:51:02.100Z,18.51
2022-10-01T09:53:39.402Z,18.69
2022-10-01T09:56:28.942Z,18.82
2022-10-01T09:59:02.239Z,18.90
2022-10-01T10:01:52.075Z,18.96
2022-10-01T10:04:24.234Z,19.04
2022-10-01T10:07:00.535Z,19.11
2022-10-01T10:09:35.319Z,19.27
2022-10-01T10:12:03.583Z,19.44
2022-10-01T10:14:37.892Z,19.67
2022-10-01T10:17:17.031Z,19.83
2022-10-01T10:19:51.863Z,19.96
2022-10-01T10:22:24.837Z,20.01
2022-10-01T10:24:58.166Z,20.10
2022-10-01T10:27:29.093Z,20.16
2022-10-01T10:30:15.258Z,20.26
2022-10-01T10:32:47.138Z,20.40
2022-10-01T10:35:27.279Z,20.48
2022-10-01T10:37:57.630Z,20.68
2022-10-01T10:40:29.992Z,20.87
2022-10-01T10:42:59.876Z,20.96
2022-10-01T10:45:39.938Z,21.00
2022-10-01T10:48:17.235Z,21.04
2022-10-01T10:50:46.616Z,21.07
2022-10-01T10:53:39.488Z,21.21
2022-10-01T10:56:17.571Z,21.30
2022-10-01T10:58:46.254Z,21.24
2022-10-01T11:01:19.714Z,21.24
2022-10-01T11:03:53.737Z,21.26
2022-10-01T11:06:58.403Z,21.24
2022-10-01T11:09:44.532Z,21.33
2022-10-01T11:12:19.427Z,21.23
2022-10-01T11:15:02.944Z,21.02
2022-10-01T11:17:50.516Z,20.99
2022-10-01T11:20:34.120Z,21.15
2022-10-01T11:23:34.443Z,21.28
2022-10-01T11:26:25.799Z,21.25
2022-10-01T11:29:23.630Z,21.13
2022-10-01T11:32:19.338Z,20.96
2022-10-01T11:35:02.271Z,20.65
2022-10-01T11:37:47.561Z,20.24
2022-10-01T11:40:28.009Z,19.74
2022-10-01T11:43:06.726Z,19.34
2022-10-01T11:45:44.866Z,19.01
2022-10-01T11:48:31.771Z,18.73
2022-10-01T11:51:08.642Z,18.47
2022-10-01T11:53:46.110Z,18.25
2022-10-01T11:56:37.396Z,18.11
2022-10-01T11:59:26.212Z,18.01
2022-10-01T12:02:10.237Z,17.90
2022-10-01T12:05:00.951Z,17.83
2022-10-01T12:07:43.840Z,17.75
2022-10-01T12:10:34.460Z,17.73
2022-10-01T12:13:22.494Z,17.74
2022-10-01T12:16:11.286Z,17.75
2022-10-01T12:19:13.186Z,17.83
2022-10-01T12:21:51.761Z,17.95
2022-10-01T12:24:30.106Z,18.09
2022-10-01T12:27:25.211Z,18.27
2022-10-01T12:30:04.585Z,18.42
2022-10-01T12:32:48.299Z,18.44
2022-10-01T12:35:33.958Z,18.42
2022-10-01T12:38:38.310Z,18.49
2022-10-01T12:41:30.683Z,18.62
2022-10-01T12:44:20.073Z,18.61
2022-10-01T12:47:06.501Z,18.58
2022-10-01T12:49:42.573Z,18.56
2022-10-01T12:52:36.870Z,18.54
2022-10-01T12:55:23.053Z,18.47
2022-10-01T12:57:58.330Z,18.36
2022-10-01T13:00:31.870Z,18.23
2022-10-01T13:03:21.622Z,18.09
2022-10-01T13:06:11.038Z,17.93
2022-10-01T13:09:02.063Z,17.78
2022-10-01T13:11:58.153Z,17.58
2022-10-01T13:14:28.964Z,17.46
2022-10-01T13:17:22.860Z,17.36
2022-10-01T13:19:59.784Z,17.38
2022-10-01T13:22:59.397Z,17.57
2022-10-01T13:25:42.889Z,17.94
2022-10-01T13:28:19.193Z,18.37
2022-10-01T13:31:11.556Z,18.77
2022-10-01T13:33:39.325Z,19.30
2022-10-01T13:36:09.363Z,19.54
2022-10-01T13:38:47.720Z,19.60
2022-10-01T13:41:23.175Z,19.50
2022-10-01T13:44:08.392Z,19.28
2022-10-01T13:46:54.700Z,19.07
2022-10-01T13:49:28.912Z,18.87
2022-10-01T13:51:58.118Z,18.65
2022-10-01T13:54:47.586Z,18.44
2022-10-01T13:57:36.200Z,18.37
2022-10-01T14:00:22.979Z,18.44
2022-10-01T14:03:27.485Z,18.56
2022-10-01T14:05:59.523Z,18.72
2022-10-01T14:08:43.081Z,18.94
2022-10-01T14:11:32.182Z,19.09
2022-10-01T14:14:36.417Z,19.17
2022-10-01T14:17:07.687Z,19.26
2022-10-01T14:19:35.960Z,19.15
2022-10-01T14:22:27.875Z,18.97
2022-10-01T14:25:11.312Z,18.71
2022-10-01T14:27:51.142Z,18.40
2022-10-01T14:30:24.155Z,18.05
2022-10-01T14:33:23.697Z,17.75
2022-10-01T14:36:12.139Z,17.39
2022-10-01T14:38:39.723Z,17.11
2022-10-01T14:41:20.901Z,16.86
2022-10-01T14:43:48.518Z,16.59
2022-10-01T14:46:20.935Z,16.38
2022-10-01T14:48:58.918Z,16.17
2022-10-01T14:51:31.330Z,15.98
2022-10-01T14:54:00.673Z,15.81
2022-10-01T14:56:29.685Z,15.66
2022-10-01T14:59:05.293Z,15.53
2022-10-01T15:01:32.910Z,15.42
2022-10-01T15:04:00.880Z,15.29
2022-10-01T15:06:29.996Z,15.18
2022-10-01T15:09:15.065Z,15.09
2022-10-01T15:11:45.017Z,14.98
2022-10-01T15:14:22.137Z,14.88
2022-10-01T15:16:51.010Z,14.79
2022-10-01T15:19:25.614Z,14.73
2022-10-01T15:22:00.705Z,14.67
2022-10-01T15:24:46.344Z,14.59
2022-10-01T15:27:17.588Z,14.51
2022-10-01T15:29:46.788Z,14.45
2022-10-01T15:32:17.450Z,14.38
2022-10-01T15:34:53.958Z,14.31
2022-10-01T15:40:27.558Z,14.20
2022-10-01T15:43:18.567Z,14.15
2022-10-01T15:46:14.661Z,14.08
2022-10-01T15:48:42.743Z,14.02
2022-10-01T15:51:20.099Z,13.96
2022-10-01T15:53:47.814Z,13.90
2022-10-01T15:59:19.496Z,13.77
2022-10-01T16:01:47.205Z,13.73
2022-10-01T16:04:15.004Z,13.69
2022-10-01T16:06:45.241Z,13.66
2022-10-01T16:09:19.540Z,13.64
2022-10-01T16:12:12.080Z,13.61
2022-10-01T16:14:44.549Z,13.58
2022-10-01T16:17:22.873Z,13.54
2022-10-01T16:19:53.399Z,13.50
2022-10-01T16:22:22.829Z,13.45
2022-10-01T16:25:01.547Z,13.40
2022-10-01T16:27:51.480Z,13.36
2022-10-01T16:30:26.955Z,13.34
2022-10-01T16:32:55.889Z,13.33
2022-10-01T16:35:27.894Z,13.32
2022-10-01T16:37:57.958Z,13.31
2022-10-01T16:40:30.811Z,13.30
2022-10-01T16:43:00.266Z,13.28
2022-10-01T16:45:35.313Z,13.27
2022-10-01T16:48:13.132Z,13.25
2022-10-01T16:50:41.496Z,13.23
2022-10-01T16:53:15.569Z,13.21
2022-10-01T16:55:44.298Z,13.18
2022-10-01T16:58:14.672Z,13.16
2022-10-01T17:00:42.700Z,13.15
2022-10-01T17:03:18.691Z,13.15
2022-10-01T17:05:48.163Z,13.13
2022-10-01T17:08:18.794Z,13.10
2022-10-01T17:11:01.505Z,13.05
2022-10-01T17:13:33.821Z,13.01
2022-10-01T17:16:02.123Z,12.98
2022-10-01T17:18:29.894Z,12.95
2022-10-01T17:21:00.224Z,12.96
2022-10-01T17:23:27.888Z,12.94
2022-10-01T17:25:55.472Z,12.93
2022-10-01T17:28:27.398Z,12.89
2022-10-01T17:30:56.078Z,12.85
2022-10-01T17:33:25.201Z,12.82
2022-10-01T17:35:55.631Z,12.80
2022-10-01T17:38:23.964Z,12.80
2022-10-01T17:40:56.485Z,12.79
2022-10-01T17:43:24.552Z,12.78
2022-10-01T17:45:57.761Z,12.75
2022-10-01T17:48:26.961Z,12.73
2022-10-01T17:50:59.852Z,12.71
2022-10-01T17:53:32.455Z,12.70
2022-10-01T17:56:15.518Z,12.70
2022-10-01T17:58:45.635Z,12.71
2022-10-01T18:01:24.029Z,12.72
2022-10-01T18:03:55.860Z,12.71
2022-10-01T18:06:24.670Z,12.70
2022-10-01T18:08:56.773Z,12.67
2022-10-01T18:11:27.451Z,12.67
2022-10-01T18:13:55.078Z,12.66
2022-10-01T18:16:23.559Z,12.66
2022-10-01T18:21:46.196Z,12.63
2022-10-01T18:24:15.088Z,12.60
2022-10-01T18:26:42.881Z,12.57
2022-10-01T18:29:22.235Z,12.55
2022-10-01T18:32:02.114Z,12.54
2022-10-01T18:34:41.965Z,12.54
2022-10-01T18:37:40.063Z,12.53
2022-10-01T18:40:12.057Z,12.53
2022-10-01T18:43:10.632Z,12.53
2022-10-01T18:46:14.456Z,12.51
2022-10-01T18:48:42.030Z,12.50
2022-10-01T18:51:26.487Z,12.51
2022-10-01T18:54:13.093Z,12.51
2022-10-01T18:56:51.371Z,12.51
2022-10-01T18:59:38.385Z,12.50
2022-10-01T19:02:38.115Z,12.47
2022-10-01T19:05:37.196Z,12.46
2022-10-01T19:08:23.552Z,12.47
2022-10-01T19:11:18.521Z,12.46
2022-10-01T19:14:10.148Z,12.45
2022-10-01T19:16:53.657Z,12.42
2022-10-01T19:19:37.159Z,12.40
2022-10-01T19:22:33.625Z,12.33
2022-10-01T19:25:04.327Z,12.25
2022-10-01T19:27:47.949Z,12.16
2022-10-01T19:30:18.151Z,12.04
2022-10-01T19:33:03.722Z,11.89
2022-10-01T19:35:36.307Z,11.69
2022-10-01T19:38:06.743Z,11.52
2022-10-01T19:40:58.298Z,11.40
2022-10-01T19:43:51.290Z,11.30
2022-10-01T19:46:25.263Z,11.29
2022-10-01T19:49:02.450Z,11.29
2022-10-01T19:51:51.138Z,11.27
2022-10-01T19:54:22.294Z,11.25
2022-10-01T19:56:54.973Z,11.21
2022-10-01T19:59:22.965Z,11.16
2022-10-01T20:01:57.383Z,11.11
2022-10-01T20:04:44.476Z,11.07
2022-10-01T20:07:27.803Z,10.99
2022-10-01T20:09:55.300Z,10.94
2022-10-01T20:12:46.481Z,10.88
2022-10-01T20:15:34.603Z,10.86
2022-10-01T20:18:34.350Z,10.87
2022-10-01T20:21:29.828Z,10.89
2022-10-01T20:24:29.396Z,10.91
2022-10-01T20:27:31.549Z,10.91
2022-10-01T20:30:08.961Z,10.91
2022-10-01T20:33:02.663Z,10.94
2022-10-01T20:35:52.099Z,10.98
2022-10-01T20:38:25.128Z,11.01
2022-10-01T20:40:58.674Z,11.05
2022-10-01T20:43:30.278Z,11.07
2022-10-01T20:46:03.135Z,11.06
2022-10-01T20:48:37.395Z,11.06
2022-10-01T20:51:26.851Z,11.10
2022-10-01T20:53:58.929Z,11.12
2022-10-01T20:56:38.940Z,11.14
2022-10-01T20:59:16.155Z,11.15
2022-10-01T21:02:00.552Z,11.17
2022-10-01T21:04:54.315Z,11.21
2022-10-01T21:07:37.182Z,11.24
2022-10-01T21:10:26.903Z,11.28
2022-10-01T21:13:13.662Z,11.29
2022-10-01T21:16:13.273Z,11.28
2022-10-01T21:19:14.236Z,11.26
2022-10-01T21:21:54.500Z,11.27
2022-10-01T21:24:44.842Z,11.29
2022-10-01T21:27:28.303Z,11.31
2022-10-01T21:30:02.731Z,11.31
2022-10-01T21:32:39.760Z,11.31
2022-10-01T21:35:18.421Z,11.31
2022-10-01T21:38:11.716Z,11.31
2022-10-01T21:40:55.236Z,11.29
2022-10-01T21:43:38.764Z,11.29
2022-10-01T21:46:11.583Z,11.27
2022-10-01T21:48:57.342Z,11.25
2022-10-01T21:51:48.207Z,11.20
2022-10-01T21:54:24.921Z,11.13
2022-10-01T21:57:11.428Z,11.08
2022-10-01T22:00:08.067Z,11.07
2022-10-01T22:03:02.334Z,11.03
2022-10-01T22:05:56.111Z,10.98
2022-10-01T22:08:47.382Z,10.94
2022-10-01T22:11:20.021Z,10.94
2022-10-01T22:13:53.361Z,10.93
2022-10-01T22:16:22.977Z,10.91
2022-10-01T22:18:55.666Z,10.93
2022-10-01T22:21:44.921Z,10.96
2022-10-01T22:24:45.557Z,10.99
2022-10-01T22:27:16.000Z,11.01
2022-10-01T22:29:51.253Z,11.03
2022-10-01T22:32:23.291Z,11.05
2022-10-01T22:35:05.212Z,11.08
2022-10-01T22:37:43.989Z,11.09
2022-10-01T22:40:22.538Z,11.09
2022-10-01T22:43:01.414Z,11.09
2022-10-01T22:45:50.835Z,11.09
2022-10-01T22:48:40.285Z,11.09
2022-10-01T22:51:18.033Z,11.11
2022-10-01T22:54:13.799Z,11.13
2022-10-01T22:57:07.382Z,11.15
2022-10-01T22:59:56.167Z,11.16
2022-10-01T23:02:42.613Z,11.16
2022-10-01T23:05:42.589Z,11.15
2022-10-01T23:08:19.242Z,11.15
2022-10-01T23:11:11.365Z,11.15
2022-10-01T23:13:52.131Z,11.15
2022-10-01T23:16:41.760Z,11.14
2022-10-01T23:19:09.636Z,11.13
2022-10-01T23:21:58.627Z,11.12
2022-10-01T23:24:51.220Z,11.11
2022-10-01T23:27:40.845Z,11.10
2022-10-01T23:30:14.264Z,11.09
2022-10-01T23:33:13.770Z,11.07
2022-10-01T23:36:11.913Z,11.08
2022-10-01T23:39:07.315Z,11.07
2022-10-01T23:41:51.787Z,11.03
2022-10-01T23:44:38.804Z,11.02
2022-10-01T23:47:21.710Z,11.03
2022-10-01T23:49:54.539Z,11.07
2022-10-01T23:52:37.128Z,11.08
2022-10-01T23:55:44.720Z,11.07
2022-10-01T23:58:16.853Z,11.08
